sensor_id;sensor_type;location;lat;lon;timestamp;P1;durP1;ratioP1;P2;durP2;ratioP2
44139;SDS011;29803;51.048;4.686;2023-06-22T00:01:44;9.95;;;5.57;;
44139;SDS011;29803;51.048;4.686;2023-06-22T00:04:14;10.52;;;5.93;;
44139;SDS011;29803;51.048;4.686;2023-06-22T00:06:45;10.95;;;5.45;;
44139;SDS011;29803;51.048;4.686;2023-06-22T00:09:15;10.02;;;5.15;;
44139;SDS011;29803;51.048;4.686;2023-06-22T00:11:46;12.38;;;6.10;;
44139;SDS011;29803;51.048;4.686;2023-06-22T00:14:16;9.27;;;6.55;;
44139;SDS011;29803;51.048;4.686;2023-06-22T00:16:47;10.68;;;6.30;;
44139;SDS011;29803;51.048;4.686;2023-06-22T00:19:18;11.00;;;5.93;;
44139;SDS011;29803;51.048;4.686;2023-06-22T00:21:50;12.55;;;5.63;;
44139;SDS011;29803;51.048;4.686;2023-06-22T00:24:23;11.70;;;6.63;;
44139;SDS011;29803;51.048;4.686;2023-06-22T00:26:54;10.68;;;6.07;;
44139;SDS011;29803;51.048;4.686;2023-06-22T00:29:24;9.90;;;6.10;;
44139;SDS011;29803;51.048;4.686;2023-06-22T00:31:55;11.07;;;6.13;;
44139;SDS011;29803;51.048;4.686;2023-06-22T00:34:25;10.25;;;6.28;;
44139;SDS011;29803;51.048;4.686;2023-06-22T00:36:56;10.18;;;6.18;;
44139;SDS011;29803;51.048;4.686;2023-06-22T00:39:26;11.43;;;6.78;;
44139;SDS011;29803;51.048;4.686;2023-06-22T00:41:57;11.07;;;6.18;;
44139;SDS011;29803;51.048;4.686;2023-06-22T00:44:27;12.18;;;7.00;;
44139;SDS011;29803;51.048;4.686;2023-06-22T00:46:57;11.70;;;7.05;;
44139;SDS011;29803;51.048;4.686;2023-06-22T00:49:30;13.73;;;7.40;;
44139;SDS011;29803;51.048;4.686;2023-06-22T00:52:00;14.07;;;7.00;;
44139;SDS011;29803;51.048;4.686;2023-06-22T00:54:32;10.70;;;6.75;;
44139;SDS011;29803;51.048;4.686;2023-06-22T00:57:02;12.73;;;6.45;;
44139;SDS011;29803;51.048;4.686;2023-06-22T00:59:33;12.32;;;7.05;;
44139;SDS011;29803;51.048;4.686;2023-06-22T01:02:04;12.25;;;6.85;;
44139;SDS011;29803;51.048;4.686;2023-06-22T01:04:35;10.38;;;6.20;;
44139;SDS011;29803;51.048;4.686;2023-06-22T01:07:19;13.38;;;6.68;;
44139;SDS011;29803;51.048;4.686;2023-06-22T01:12:50;14.10;;;7.63;;
44139;SDS011;29803;51.048;4.686;2023-06-22T01:18:17;10.52;;;7.45;;
44139;SDS011;29803;51.048;4.686;2023-06-22T01:20:48;11.60;;;6.18;;
44139;SDS011;29803;51.048;4.686;2023-06-22T01:23:56;13.70;;;7.50;;
44139;SDS011;29803;51.048;4.686;2023-06-22T01:26:42;10.07;;;6.85;;
44139;SDS011;29803;51.048;4.686;2023-06-22T01:29:24;12.05;;;7.47;;
44139;SDS011;29803;51.048;4.686;2023-06-22T01:31:57;10.68;;;7.05;;
44139;SDS011;29803;51.048;4.686;2023-06-22T01:34:29;11.68;;;8.00;;
44139;SDS011;29803;51.048;4.686;2023-06-22T01:37:02;12.40;;;6.78;;
44139;SDS011;29803;51.048;4.686;2023-06-22T01:39:33;11.38;;;6.57;;
44139;SDS011;29803;51.048;4.686;2023-06-22T01:42:04;13.32;;;6.95;;
44139;SDS011;29803;51.048;4.686;2023-06-22T01:44:36;13.55;;;8.15;;
44139;SDS011;29803;51.048;4.686;2023-06-22T01:47:08;11.95;;;7.05;;
44139;SDS011;29803;51.048;4.686;2023-06-22T01:49:40;10.27;;;6.18;;
44139;SDS011;29803;51.048;4.686;2023-06-22T01:52:11;12.10;;;7.10;;
44139;SDS011;29803;51.048;4.686;2023-06-22T01:54:47;12.68;;;6.93;;
44139;SDS011;29803;51.048;4.686;2023-06-22T01:57:18;13.70;;;7.10;;
44139;SDS011;29803;51.048;4.686;2023-06-22T02:02:39;14.10;;;6.95;;
44139;SDS011;29803;51.048;4.686;2023-06-22T02:05:16;12.27;;;7.63;;
44139;SDS011;29803;51.048;4.686;2023-06-22T02:07:51;15.25;;;6.95;;
44139;SDS011;29803;51.048;4.686;2023-06-22T02:10:38;13.35;;;7.53;;
44139;SDS011;29803;51.048;4.686;2023-06-22T02:13:11;10.95;;;6.32;;
44139;SDS011;29803;51.048;4.686;2023-06-22T02:15:45;14.45;;;7.07;;
44139;SDS011;29803;51.048;4.686;2023-06-22T02:18:17;13.00;;;7.03;;
44139;SDS011;29803;51.048;4.686;2023-06-22T02:20:48;12.07;;;6.72;;
44139;SDS011;29803;51.048;4.686;2023-06-22T02:23:18;13.52;;;6.63;;
44139;SDS011;29803;51.048;4.686;2023-06-22T02:25:49;15.30;;;7.55;;
44139;SDS011;29803;51.048;4.686;2023-06-22T02:28:19;14.02;;;7.03;;
44139;SDS011;29803;51.048;4.686;2023-06-22T02:30:51;10.30;;;6.72;;
44139;SDS011;29803;51.048;4.686;2023-06-22T02:33:21;12.05;;;7.43;;
44139;SDS011;29803;51.048;4.686;2023-06-22T02:35:52;13.38;;;7.32;;
44139;SDS011;29803;51.048;4.686;2023-06-22T02:38:23;13.27;;;7.10;;
44139;SDS011;29803;51.048;4.686;2023-06-22T02:40:54;13.50;;;7.47;;
44139;SDS011;29803;51.048;4.686;2023-06-22T02:43:25;14.27;;;7.57;;
44139;SDS011;29803;51.048;4.686;2023-06-22T02:45:55;12.65;;;8.25;;
44139;SDS011;29803;51.048;4.686;2023-06-22T02:48:26;15.32;;;8.90;;
44139;SDS011;29803;51.048;4.686;2023-06-22T02:50:56;18.88;;;9.60;;
44139;SDS011;29803;51.048;4.686;2023-06-22T02:53:26;16.65;;;8.88;;
44139;SDS011;29803;51.048;4.686;2023-06-22T02:55:57;14.98;;;9.13;;
44139;SDS011;29803;51.048;4.686;2023-06-22T02:58:27;15.25;;;8.52;;
44139;SDS011;29803;51.048;4.686;2023-06-22T03:00:58;15.25;;;8.93;;
44139;SDS011;29803;51.048;4.686;2023-06-22T03:03:34;15.05;;;9.45;;
44139;SDS011;29803;51.048;4.686;2023-06-22T03:06:05;15.98;;;10.07;;
44139;SDS011;29803;51.048;4.686;2023-06-22T03:08:35;17.10;;;9.27;;
44139;SDS011;29803;51.048;4.686;2023-06-22T03:11:05;15.13;;;9.00;;
44139;SDS011;29803;51.048;4.686;2023-06-22T03:13:36;12.98;;;7.68;;
44139;SDS011;29803;51.048;4.686;2023-06-22T03:16:06;14.15;;;8.85;;
44139;SDS011;29803;51.048;4.686;2023-06-22T03:18:37;18.27;;;9.52;;
44139;SDS011;29803;51.048;4.686;2023-06-22T03:21:07;15.60;;;9.25;;
44139;SDS011;29803;51.048;4.686;2023-06-22T03:23:38;15.43;;;10.23;;
44139;SDS011;29803;51.048;4.686;2023-06-22T03:26:09;18.50;;;9.48;;
44139;SDS011;29803;51.048;4.686;2023-06-22T03:28:40;18.33;;;9.77;;
44139;SDS011;29803;51.048;4.686;2023-06-22T03:31:10;14.90;;;9.60;;
44139;SDS011;29803;51.048;4.686;2023-06-22T03:33:41;17.67;;;9.75;;
44139;SDS011;29803;51.048;4.686;2023-06-22T03:36:11;18.95;;;10.55;;
44139;SDS011;29803;51.048;4.686;2023-06-22T03:38:42;18.75;;;9.98;;
44139;SDS011;29803;51.048;4.686;2023-06-22T03:41:12;15.25;;;9.60;;
44139;SDS011;29803;51.048;4.686;2023-06-22T03:43:43;16.98;;;10.57;;
44139;SDS011;29803;51.048;4.686;2023-06-22T03:46:13;19.15;;;10.98;;
44139;SDS011;29803;51.048;4.686;2023-06-22T03:48:44;16.50;;;10.38;;
44139;SDS011;29803;51.048;4.686;2023-06-22T03:51:14;17.23;;;10.50;;
44139;SDS011;29803;51.048;4.686;2023-06-22T03:53:45;17.75;;;11.07;;
44139;SDS011;29803;51.048;4.686;2023-06-22T03:56:15;18.98;;;11.85;;
44139;SDS011;29803;51.048;4.686;2023-06-22T03:58:50;18.02;;;11.27;;
44139;SDS011;29803;51.048;4.686;2023-06-22T04:01:20;19.63;;;11.82;;
44139;SDS011;29803;51.048;4.686;2023-06-22T04:03:51;19.80;;;11.32;;
44139;SDS011;29803;51.048;4.686;2023-06-22T04:06:21;21.15;;;11.32;;
44139;SDS011;29803;51.048;4.686;2023-06-22T04:08:52;23.08;;;12.52;;
44139;SDS011;29803;51.048;4.686;2023-06-22T04:11:23;18.63;;;11.23;;
44139;SDS011;29803;51.048;4.686;2023-06-22T04:13:53;23.73;;;13.52;;
44139;SDS011;29803;51.048;4.686;2023-06-22T04:16:24;19.05;;;11.55;;
44139;SDS011;29803;51.048;4.686;2023-06-22T04:18:54;20.95;;;11.73;;
44139;SDS011;29803;51.048;4.686;2023-06-22T04:21:25;21.15;;;12.70;;
44139;SDS011;29803;51.048;4.686;2023-06-22T04:23:55;21.90;;;12.85;;
44139;SDS011;29803;51.048;4.686;2023-06-22T04:26:25;25.00;;;12.32;;
44139;SDS011;29803;51.048;4.686;2023-06-22T04:28:56;22.27;;;12.40;;
44139;SDS011;29803;51.048;4.686;2023-06-22T04:31:26;20.08;;;11.93;;
44139;SDS011;29803;51.048;4.686;2023-06-22T04:36:49;23.17;;;13.80;;
44139;SDS011;29803;51.048;4.686;2023-06-22T04:39:19;25.30;;;13.77;;
44139;SDS011;29803;51.048;4.686;2023-06-22T04:41:50;20.17;;;12.68;;
44139;SDS011;29803;51.048;4.686;2023-06-22T04:44:21;21.30;;;13.23;;
44139;SDS011;29803;51.048;4.686;2023-06-22T04:47:10;17.85;;;11.50;;
44139;SDS011;29803;51.048;4.686;2023-06-22T04:49:40;22.58;;;12.80;;
44139;SDS011;29803;51.048;4.686;2023-06-22T04:52:13;20.67;;;12.07;;
44139;SDS011;29803;51.048;4.686;2023-06-22T04:54:50;21.20;;;12.55;;
44139;SDS011;29803;51.048;4.686;2023-06-22T05:00:02;18.70;;;12.63;;
44139;SDS011;29803;51.048;4.686;2023-06-22T05:02:44;20.17;;;13.20;;
44139;SDS011;29803;51.048;4.686;2023-06-22T05:05:15;21.70;;;12.70;;
44139;SDS011;29803;51.048;4.686;2023-06-22T05:07:46;20.58;;;12.95;;
44139;SDS011;29803;51.048;4.686;2023-06-22T05:10:20;19.77;;;12.40;;
44139;SDS011;29803;51.048;4.686;2023-06-22T05:12:51;23.52;;;13.27;;
44139;SDS011;29803;51.048;4.686;2023-06-22T05:15:22;25.33;;;13.70;;
44139;SDS011;29803;51.048;4.686;2023-06-22T05:17:56;20.73;;;13.35;;
44139;SDS011;29803;51.048;4.686;2023-06-22T05:20:28;23.40;;;13.60;;
44139;SDS011;29803;51.048;4.686;2023-06-22T05:22:58;23.48;;;13.27;;
44139;SDS011;29803;51.048;4.686;2023-06-22T05:25:29;24.27;;;14.75;;
44139;SDS011;29803;51.048;4.686;2023-06-22T05:28:00;26.13;;;13.77;;
44139;SDS011;29803;51.048;4.686;2023-06-22T05:30:31;22.17;;;13.32;;
44139;SDS011;29803;51.048;4.686;2023-06-22T05:33:01;23.88;;;13.13;;
44139;SDS011;29803;51.048;4.686;2023-06-22T05:35:32;24.90;;;15.38;;
44139;SDS011;29803;51.048;4.686;2023-06-22T05:38:02;27.08;;;15.60;;
44139;SDS011;29803;51.048;4.686;2023-06-22T05:40:33;20.05;;;13.35;;
44139;SDS011;29803;51.048;4.686;2023-06-22T05:43:19;27.58;;;14.90;;
44139;SDS011;29803;51.048;4.686;2023-06-22T05:45:49;20.70;;;14.65;;
44139;SDS011;29803;51.048;4.686;2023-06-22T05:48:20;22.15;;;14.60;;
44139;SDS011;29803;51.048;4.686;2023-06-22T05:50:50;21.65;;;13.95;;
44139;SDS011;29803;51.048;4.686;2023-06-22T05:53:21;26.20;;;15.48;;
44139;SDS011;29803;51.048;4.686;2023-06-22T05:55:52;26.42;;;14.75;;
44139;SDS011;29803;51.048;4.686;2023-06-22T05:58:22;23.48;;;13.98;;
44139;SDS011;29803;51.048;4.686;2023-06-22T06:00:53;23.45;;;15.18;;
44139;SDS011;29803;51.048;4.686;2023-06-22T06:03:23;22.42;;;14.52;;
44139;SDS011;29803;51.048;4.686;2023-06-22T06:05:54;27.85;;;16.08;;
44139;SDS011;29803;51.048;4.686;2023-06-22T06:08:26;22.90;;;14.45;;
44139;SDS011;29803;51.048;4.686;2023-06-22T06:11:00;26.52;;;14.68;;
44139;SDS011;29803;51.048;4.686;2023-06-22T06:13:30;25.63;;;15.15;;
44139;SDS011;29803;51.048;4.686;2023-06-22T06:16:01;28.38;;;14.90;;
44139;SDS011;29803;51.048;4.686;2023-06-22T06:18:31;25.98;;;15.90;;
44139;SDS011;29803;51.048;4.686;2023-06-22T06:21:02;34.75;;;18.58;;
44139;SDS011;29803;51.048;4.686;2023-06-22T06:23:32;28.77;;;15.40;;
44139;SDS011;29803;51.048;4.686;2023-06-22T06:26:03;26.63;;;16.98;;
44139;SDS011;29803;51.048;4.686;2023-06-22T06:28:37;27.83;;;17.10;;
44139;SDS011;29803;51.048;4.686;2023-06-22T06:31:07;29.00;;;17.13;;
44139;SDS011;29803;51.048;4.686;2023-06-22T06:33:38;26.15;;;18.00;;
44139;SDS011;29803;51.048;4.686;2023-06-22T06:36:10;25.42;;;16.55;;
44139;SDS011;29803;51.048;4.686;2023-06-22T06:38:41;32.17;;;18.20;;
44139;SDS011;29803;51.048;4.686;2023-06-22T06:41:11;26.75;;;17.73;;
44139;SDS011;29803;51.048;4.686;2023-06-22T06:43:42;29.45;;;18.17;;
44139;SDS011;29803;51.048;4.686;2023-06-22T06:46:13;32.05;;;18.52;;
44139;SDS011;29803;51.048;4.686;2023-06-22T06:48:43;32.10;;;18.25;;
44139;SDS011;29803;51.048;4.686;2023-06-22T06:51:14;30.73;;;19.80;;
44139;SDS011;29803;51.048;4.686;2023-06-22T06:53:44;29.75;;;18.85;;
44139;SDS011;29803;51.048;4.686;2023-06-22T06:56:15;30.77;;;18.67;;
44139;SDS011;29803;51.048;4.686;2023-06-22T06:58:46;33.38;;;18.48;;
44139;SDS011;29803;51.048;4.686;2023-06-22T07:01:19;27.92;;;16.75;;
44139;SDS011;29803;51.048;4.686;2023-06-22T07:03:50;32.00;;;18.88;;
44139;SDS011;29803;51.048;4.686;2023-06-22T07:06:21;33.42;;;18.20;;
44139;SDS011;29803;51.048;4.686;2023-06-22T07:08:51;30.95;;;19.33;;
44139;SDS011;29803;51.048;4.686;2023-06-22T07:11:21;29.20;;;18.92;;
44139;SDS011;29803;51.048;4.686;2023-06-22T07:13:52;31.67;;;17.92;;
44139;SDS011;29803;51.048;4.686;2023-06-22T07:16:22;28.60;;;18.73;;
44139;SDS011;29803;51.048;4.686;2023-06-22T07:18:55;31.50;;;19.13;;
44139;SDS011;29803;51.048;4.686;2023-06-22T07:21:26;40.03;;;20.23;;
44139;SDS011;29803;51.048;4.686;2023-06-22T07:23:56;28.40;;;19.13;;
44139;SDS011;29803;51.048;4.686;2023-06-22T07:26:27;31.85;;;19.90;;
44139;SDS011;29803;51.048;4.686;2023-06-22T07:28:57;30.70;;;18.83;;
44139;SDS011;29803;51.048;4.686;2023-06-22T07:31:28;30.00;;;19.10;;
44139;SDS011;29803;51.048;4.686;2023-06-22T07:33:58;30.70;;;19.08;;
44139;SDS011;29803;51.048;4.686;2023-06-22T07:36:29;31.98;;;18.67;;
44139;SDS011;29803;51.048;4.686;2023-06-22T07:39:00;30.98;;;17.73;;
44139;SDS011;29803;51.048;4.686;2023-06-22T07:41:30;29.05;;;18.58;;
44139;SDS011;29803;51.048;4.686;2023-06-22T07:44:02;23.25;;;15.57;;
44139;SDS011;29803;51.048;4.686;2023-06-22T07:46:33;28.70;;;16.50;;
44139;SDS011;29803;51.048;4.686;2023-06-22T07:49:04;24.38;;;16.42;;
44139;SDS011;29803;51.048;4.686;2023-06-22T07:51:34;26.65;;;16.38;;
44139;SDS011;29803;51.048;4.686;2023-06-22T07:54:05;27.40;;;16.15;;
44139;SDS011;29803;51.048;4.686;2023-06-22T07:56:36;24.60;;;15.43;;
44139;SDS011;29803;51.048;4.686;2023-06-22T07:59:07;26.38;;;15.07;;
44139;SDS011;29803;51.048;4.686;2023-06-22T08:01:38;21.13;;;13.82;;
44139;SDS011;29803;51.048;4.686;2023-06-22T08:04:08;28.77;;;14.75;;
44139;SDS011;29803;51.048;4.686;2023-06-22T08:06:39;25.58;;;13.27;;
44139;SDS011;29803;51.048;4.686;2023-06-22T08:09:13;19.60;;;13.02;;
44139;SDS011;29803;51.048;4.686;2023-06-22T08:11:44;20.73;;;11.63;;
44139;SDS011;29803;51.048;4.686;2023-06-22T08:14:15;22.30;;;12.57;;
44139;SDS011;29803;51.048;4.686;2023-06-22T08:16:45;25.08;;;12.38;;
44139;SDS011;29803;51.048;4.686;2023-06-22T08:19:16;29.30;;;12.18;;
44139;SDS011;29803;51.048;4.686;2023-06-22T08:21:47;25.98;;;12.35;;
44139;SDS011;29803;51.048;4.686;2023-06-22T08:24:17;17.92;;;10.82;;
44139;SDS011;29803;51.048;4.686;2023-06-22T08:26:51;18.70;;;11.20;;
44139;SDS011;29803;51.048;4.686;2023-06-22T08:29:22;20.13;;;10.23;;
44139;SDS011;29803;51.048;4.686;2023-06-22T08:31:52;16.17;;;10.52;;
44139;SDS011;29803;51.048;4.686;2023-06-22T08:34:23;15.65;;;9.73;;
44139;SDS011;29803;51.048;4.686;2023-06-22T08:36:55;16.92;;;9.02;;
44139;SDS011;29803;51.048;4.686;2023-06-22T08:39:25;12.45;;;8.90;;
44139;SDS011;29803;51.048;4.686;2023-06-22T08:41:56;14.18;;;9.35;;
44139;SDS011;29803;51.048;4.686;2023-06-22T08:44:26;13.75;;;7.82;;
44139;SDS011;29803;51.048;4.686;2023-06-22T08:46:57;16.27;;;7.35;;
44139;SDS011;29803;51.048;4.686;2023-06-22T08:49:27;15.07;;;7.93;;
44139;SDS011;29803;51.048;4.686;2023-06-22T08:51:58;11.82;;;7.38;;
44139;SDS011;29803;51.048;4.686;2023-06-22T08:54:28;11.77;;;8.15;;
44139;SDS011;29803;51.048;4.686;2023-06-22T08:56:59;22.17;;;7.88;;
44139;SDS011;29803;51.048;4.686;2023-06-22T08:59:29;13.20;;;8.00;;
44139;SDS011;29803;51.048;4.686;2023-06-22T09:02:00;11.43;;;6.90;;
44139;SDS011;29803;51.048;4.686;2023-06-22T09:04:30;18.73;;;7.85;;
44139;SDS011;29803;51.048;4.686;2023-06-22T09:07:04;16.40;;;8.65;;
44139;SDS011;29803;51.048;4.686;2023-06-22T09:09:35;43.70;;;11.63;;
44139;SDS011;29803;51.048;4.686;2023-06-22T09:12:06;27.25;;;9.27;;
44139;SDS011;29803;51.048;4.686;2023-06-22T09:14:38;16.42;;;7.68;;
44139;SDS011;29803;51.048;4.686;2023-06-22T09:17:08;31.77;;;8.25;;
44139;SDS011;29803;51.048;4.686;2023-06-22T09:19:39;22.20;;;8.10;;
44139;SDS011;29803;51.048;4.686;2023-06-22T09:22:09;14.50;;;7.63;;
44139;SDS011;29803;51.048;4.686;2023-06-22T09:24:40;24.42;;;9.07;;
44139;SDS011;29803;51.048;4.686;2023-06-22T09:27:11;36.55;;;11.95;;
44139;SDS011;29803;51.048;4.686;2023-06-22T09:29:41;69.78;;;14.10;;
44139;SDS011;29803;51.048;4.686;2023-06-22T09:32:12;25.38;;;10.48;;
44139;SDS011;29803;51.048;4.686;2023-06-22T09:34:43;23.38;;;10.07;;
44139;SDS011;29803;51.048;4.686;2023-06-22T09:37:14;21.02;;;9.77;;
44139;SDS011;29803;51.048;4.686;2023-06-22T09:39:44;14.60;;;9.10;;
44139;SDS011;29803;51.048;4.686;2023-06-22T09:42:15;20.88;;;9.20;;
44139;SDS011;29803;51.048;4.686;2023-06-22T09:44:46;24.90;;;10.82;;
44139;SDS011;29803;51.048;4.686;2023-06-22T09:47:17;16.70;;;9.00;;
44139;SDS011;29803;51.048;4.686;2023-06-22T09:49:48;17.98;;;10.30;;
44139;SDS011;29803;51.048;4.686;2023-06-22T09:52:18;15.80;;;9.32;;
44139;SDS011;29803;51.048;4.686;2023-06-22T09:54:49;18.65;;;10.98;;
44139;SDS011;29803;51.048;4.686;2023-06-22T09:57:19;21.27;;;12.73;;
44139;SDS011;29803;51.048;4.686;2023-06-22T09:59:50;18.88;;;12.75;;
44139;SDS011;29803;51.048;4.686;2023-06-22T10:02:20;18.48;;;12.63;;
44139;SDS011;29803;51.048;4.686;2023-06-22T10:04:52;23.85;;;13.93;;
44139;SDS011;29803;51.048;4.686;2023-06-22T10:07:22;21.42;;;13.82;;
44139;SDS011;29803;51.048;4.686;2023-06-22T10:09:53;19.98;;;13.35;;
44139;SDS011;29803;51.048;4.686;2023-06-22T10:12:23;21.58;;;14.90;;
44139;SDS011;29803;51.048;4.686;2023-06-22T10:14:54;28.92;;;15.60;;
44139;SDS011;29803;51.048;4.686;2023-06-22T10:17:24;21.77;;;14.20;;
44139;SDS011;29803;51.048;4.686;2023-06-22T10:19:55;24.85;;;14.82;;
44139;SDS011;29803;51.048;4.686;2023-06-22T10:22:25;27.40;;;14.77;;
44139;SDS011;29803;51.048;4.686;2023-06-22T10:24:56;28.50;;;14.88;;
44139;SDS011;29803;51.048;4.686;2023-06-22T10:27:26;24.55;;;15.20;;
44139;SDS011;29803;51.048;4.686;2023-06-22T10:29:57;27.92;;;16.33;;
44139;SDS011;29803;51.048;4.686;2023-06-22T10:32:27;31.85;;;17.58;;
44139;SDS011;29803;51.048;4.686;2023-06-22T10:34:58;39.30;;;20.42;;
44139;SDS011;29803;51.048;4.686;2023-06-22T10:37:29;29.85;;;19.83;;
44139;SDS011;29803;51.048;4.686;2023-06-22T10:39:59;32.42;;;19.27;;
44139;SDS011;29803;51.048;4.686;2023-06-22T10:42:30;34.92;;;20.75;;
44139;SDS011;29803;51.048;4.686;2023-06-22T10:45:00;37.35;;;21.17;;
44139;SDS011;29803;51.048;4.686;2023-06-22T10:47:31;34.60;;;19.65;;
44139;SDS011;29803;51.048;4.686;2023-06-22T10:50:02;32.08;;;20.92;;
44139;SDS011;29803;51.048;4.686;2023-06-22T10:52:33;30.60;;;19.85;;
44139;SDS011;29803;51.048;4.686;2023-06-22T10:55:03;37.50;;;22.88;;
44139;SDS011;29803;51.048;4.686;2023-06-22T10:57:34;40.97;;;24.85;;
44139;SDS011;29803;51.048;4.686;2023-06-22T11:00:06;38.10;;;22.77;;
44139;SDS011;29803;51.048;4.686;2023-06-22T11:02:38;39.80;;;24.73;;
44139;SDS011;29803;51.048;4.686;2023-06-22T11:05:09;38.97;;;24.75;;
44139;SDS011;29803;51.048;4.686;2023-06-22T11:10:29;45.83;;;28.48;;
44139;SDS011;29803;51.048;4.686;2023-06-22T11:12:59;51.13;;;28.83;;
44139;SDS011;29803;51.048;4.686;2023-06-22T11:15:30;51.60;;;31.02;;
44139;SDS011;29803;51.048;4.686;2023-06-22T11:18:00;57.25;;;34.85;;
44139;SDS011;29803;51.048;4.686;2023-06-22T11:20:31;60.78;;;35.10;;
44139;SDS011;29803;51.048;4.686;2023-06-22T11:23:04;63.97;;;38.08;;
44139;SDS011;29803;51.048;4.686;2023-06-22T11:25:36;66.55;;;39.85;;
44139;SDS011;29803;51.048;4.686;2023-06-22T11:28:08;66.43;;;41.08;;
44139;SDS011;29803;51.048;4.686;2023-06-22T11:30:38;70.22;;;41.78;;
44139;SDS011;29803;51.048;4.686;2023-06-22T11:33:09;63.20;;;39.30;;
44139;SDS011;29803;51.048;4.686;2023-06-22T11:35:39;64.47;;;37.97;;
44139;SDS011;29803;51.048;4.686;2023-06-22T11:38:10;55.92;;;35.22;;
44139;SDS011;29803;51.048;4.686;2023-06-22T11:40:40;63.50;;;35.58;;
44139;SDS011;29803;51.048;4.686;2023-06-22T11:43:11;55.97;;;34.45;;
44139;SDS011;29803;51.048;4.686;2023-06-22T11:45:41;55.70;;;34.85;;
44139;SDS011;29803;51.048;4.686;2023-06-22T11:48:12;56.58;;;33.50;;
44139;SDS011;29803;51.048;4.686;2023-06-22T11:50:42;50.15;;;32.55;;
44139;SDS011;29803;51.048;4.686;2023-06-22T11:53:13;53.45;;;33.63;;
44139;SDS011;29803;51.048;4.686;2023-06-22T11:55:46;99.80;;;36.08;;
44139;SDS011;29803;51.048;4.686;2023-06-22T11:58:17;64.43;;;36.22;;
44139;SDS011;29803;51.048;4.686;2023-06-22T12:00:48;77.80;;;36.35;;
44139;SDS011;29803;51.048;4.686;2023-06-22T12:03:19;73.53;;;35.85;;
44139;SDS011;29803;51.048;4.686;2023-06-22T12:05:51;63.58;;;36.80;;
44139;SDS011;29803;51.048;4.686;2023-06-22T12:08:22;74.65;;;36.60;;
44139;SDS011;29803;51.048;4.686;2023-06-22T12:10:52;68.75;;;36.97;;
44139;SDS011;29803;51.048;4.686;2023-06-22T12:13:24;96.30;;;37.42;;
44139;SDS011;29803;51.048;4.686;2023-06-22T12:15:54;116.03;;;38.53;;
44139;SDS011;29803;51.048;4.686;2023-06-22T12:18:25;96.88;;;36.97;;
44139;SDS011;29803;51.048;4.686;2023-06-22T12:20:55;70.35;;;34.63;;
44139;SDS011;29803;51.048;4.686;2023-06-22T12:23:26;101.90;;;37.08;;
44139;SDS011;29803;51.048;4.686;2023-06-22T12:25:56;91.63;;;36.75;;
44139;SDS011;29803;51.048;4.686;2023-06-22T12:28:27;93.22;;;37.15;;
44139;SDS011;29803;51.048;4.686;2023-06-22T12:30:57;161.13;;;45.30;;
44139;SDS011;29803;51.048;4.686;2023-06-22T12:33:28;88.35;;;38.83;;
44139;SDS011;29803;51.048;4.686;2023-06-22T12:36:00;100.20;;;39.38;;
44139;SDS011;29803;51.048;4.686;2023-06-22T12:38:31;74.43;;;36.83;;
44139;SDS011;29803;51.048;4.686;2023-06-22T12:41:01;60.40;;;38.25;;
44139;SDS011;29803;51.048;4.686;2023-06-22T12:43:32;63.30;;;40.53;;
44139;SDS011;29803;51.048;4.686;2023-06-22T12:46:03;72.03;;;42.97;;
44139;SDS011;29803;51.048;4.686;2023-06-22T12:48:33;67.72;;;42.03;;
44139;SDS011;29803;51.048;4.686;2023-06-22T12:51:03;62.33;;;38.13;;
44139;SDS011;29803;51.048;4.686;2023-06-22T12:53:34;71.47;;;42.85;;
44139;SDS011;29803;51.048;4.686;2023-06-22T12:56:05;69.65;;;40.80;;
44139;SDS011;29803;51.048;4.686;2023-06-22T12:58:35;67.22;;;41.08;;
44139;SDS011;29803;51.048;4.686;2023-06-22T13:01:06;70.97;;;42.00;;
44139;SDS011;29803;51.048;4.686;2023-06-22T13:03:36;75.10;;;42.72;;
44139;SDS011;29803;51.048;4.686;2023-06-22T13:06:06;68.65;;;42.35;;
44139;SDS011;29803;51.048;4.686;2023-06-22T13:08:37;67.30;;;40.88;;
44139;SDS011;29803;51.048;4.686;2023-06-22T13:11:07;79.65;;;45.15;;
44139;SDS011;29803;51.048;4.686;2023-06-22T13:13:38;76.28;;;43.75;;
44139;SDS011;29803;51.048;4.686;2023-06-22T13:16:09;73.80;;;42.83;;
44139;SDS011;29803;51.048;4.686;2023-06-22T13:18:39;73.25;;;41.58;;
44139;SDS011;29803;51.048;4.686;2023-06-22T13:21:10;69.70;;;40.92;;
44139;SDS011;29803;51.048;4.686;2023-06-22T13:23:40;81.75;;;46.97;;
44139;SDS011;29803;51.048;4.686;2023-06-22T13:26:11;80.50;;;43.95;;
44139;SDS011;29803;51.048;4.686;2023-06-22T13:28:41;73.65;;;44.60;;
44139;SDS011;29803;51.048;4.686;2023-06-22T13:31:12;76.38;;;43.92;;
44139;SDS011;29803;51.048;4.686;2023-06-22T13:33:42;73.40;;;44.13;;
44139;SDS011;29803;51.048;4.686;2023-06-22T13:36:14;82.63;;;46.00;;
44139;SDS011;29803;51.048;4.686;2023-06-22T13:38:45;77.53;;;44.30;;
44139;SDS011;29803;51.048;4.686;2023-06-22T13:41:16;100.88;;;50.20;;
44139;SDS011;29803;51.048;4.686;2023-06-22T13:43:46;83.80;;;48.70;;
44139;SDS011;29803;51.048;4.686;2023-06-22T13:46:17;76.15;;;46.08;;
44139;SDS011;29803;51.048;4.686;2023-06-22T13:48:47;75.00;;;45.00;;
44139;SDS011;29803;51.048;4.686;2023-06-22T13:51:18;77.80;;;45.05;;
44139;SDS011;29803;51.048;4.686;2023-06-22T13:53:48;76.15;;;45.30;;
44139;SDS011;29803;51.048;4.686;2023-06-22T13:56:19;70.28;;;42.47;;
44139;SDS011;29803;51.048;4.686;2023-06-22T13:58:49;67.47;;;43.05;;
44139;SDS011;29803;51.048;4.686;2023-06-22T14:01:20;70.50;;;43.50;;
44139;SDS011;29803;51.048;4.686;2023-06-22T14:03:50;82.40;;;46.78;;
44139;SDS011;29803;51.048;4.686;2023-06-22T14:06:21;81.47;;;46.88;;
44139;SDS011;29803;51.048;4.686;2023-06-22T14:08:51;83.07;;;46.42;;
44139;SDS011;29803;51.048;4.686;2023-06-22T14:11:22;81.07;;;47.05;;
44139;SDS011;29803;51.048;4.686;2023-06-22T14:13:52;79.47;;;47.15;;
44139;SDS011;29803;51.048;4.686;2023-06-22T14:16:22;71.57;;;44.58;;
44139;SDS011;29803;51.048;4.686;2023-06-22T14:18:53;73.03;;;44.28;;
44139;SDS011;29803;51.048;4.686;2023-06-22T14:21:25;74.82;;;44.70;;
44139;SDS011;29803;51.048;4.686;2023-06-22T14:23:56;78.25;;;45.90;;
44139;SDS011;29803;51.048;4.686;2023-06-22T14:26:26;73.63;;;45.28;;
44139;SDS011;29803;51.048;4.686;2023-06-22T14:28:57;81.65;;;50.15;;
44139;SDS011;29803;51.048;4.686;2023-06-22T14:31:27;75.57;;;48.33;;
44139;SDS011;29803;51.048;4.686;2023-06-22T14:33:58;84.57;;;48.70;;
44139;SDS011;29803;51.048;4.686;2023-06-22T14:36:28;86.93;;;49.13;;
44139;SDS011;29803;51.048;4.686;2023-06-22T14:38:59;84.65;;;50.75;;
44139;SDS011;29803;51.048;4.686;2023-06-22T14:41:30;82.45;;;48.67;;
44139;SDS011;29803;51.048;4.686;2023-06-22T14:44:01;83.40;;;48.55;;
44139;SDS011;29803;51.048;4.686;2023-06-22T14:46:31;93.55;;;48.75;;
44139;SDS011;29803;51.048;4.686;2023-06-22T14:49:02;88.32;;;50.22;;
44139;SDS011;29803;51.048;4.686;2023-06-22T14:51:32;82.95;;;47.33;;
44139;SDS011;29803;51.048;4.686;2023-06-22T14:54:03;73.50;;;46.20;;
44139;SDS011;29803;51.048;4.686;2023-06-22T14:56:33;84.22;;;49.70;;
44139;SDS011;29803;51.048;4.686;2023-06-22T14:59:04;79.90;;;48.35;;
44139;SDS011;29803;51.048;4.686;2023-06-22T15:01:35;79.20;;;48.47;;
44139;SDS011;29803;51.048;4.686;2023-06-22T15:04:05;85.85;;;50.17;;
44139;SDS011;29803;51.048;4.686;2023-06-22T15:06:36;97.30;;;51.90;;